Aérodrome :
LOGIN :

S'inscrire | Disclaimer

   EN    FR    IT 

 










Légende :    VFR   VFR Marginal   IFR   IFR Intensif   IFR Très Intensif
Visi : 
Plafond : 
>= 8 km
>= 3000ft
5 à 8 km
1000 à 3000 ft
1500m à 5 km
500 à 1000 ft
800 à 1500m
200 à 500 ft
< 800m
< 200 ft
Symboles :   Orages  Brouillard  Fortes neiges  Fortes précipitations  Vent > 20 kt
SIGMETs :   Divers  Orages  Givrage  Turbulence  Onde Orograph.  Cendres Volcan.






- Altitude de l'aérodrome : 44 ft
- Code IATA : POR


EFPO - Pori

DERNIER METAR :
  • 031850Z AUTO 26006KT CAVOK 00/M04 Q0996

METARs EXPIRÉS :
  • 031820Z AUTO 26006KT CAVOK M00/M04 Q0995
  • 031750Z AUTO 25004KT CAVOK M00/M03 Q0995
  • 031720Z AUTO 28006KT CAVOK 00/M03 Q0994
  • 031650Z AUTO 29011KT 9999 FEW017 SCT039 01/M03 Q0993
  • 031620Z AUTO 31011KT 9999 -SN SCT008 BKN028 BKN047 01/M02 Q0992

Prévision TAF périmée.



MET'MAP, la Météo Aéronautique d'un coup d'oeil ! - Copyright ORBIFLY Décembre 2007 - Disclaimer

ORBIFLY MET'MAP TEAM :

Programmation & Développement : Alexandra Zaïnal
Sur une idée originale de : Baudouin d'Aumeries
Assistance à la programmation : Marc-Olivier Méhu
Soutien technique & logistique : Manuel Goepfert

Contact : metmap@orbifly.com




SOURCES & CREDITS :

   NOAA